Eagle Rock, MO

2:17 AM CDT on August 23, 2019 (GMT -0500)
Holiday Island Table Rock | | Change Station

Elev 1128 ft 36.49 °N, 93.76 °W | Updated 18 seconds ago

Rain
Rain
70.5 °F
Feels Like 73 °F
N
0.89
Wind Variable Wind from West
Gusts 2.5 mph

Today
High -- | Low -- °F
--% Chance of Precip.
Yesterday
High -- | Low -- °F
Precip. -- in
Pressure 30.03 in
Visibility 6.0 miles
Clouds Scattered Clouds 1900 ft
Mostly Cloudy 5000 ft
Mostly Cloudy 7000 ft
Heat Index 73 °F
Dew Point 62 °F
Humidity 73%
Rainfall 0.54 in
Snow Depth Not available.
6:38 AM 7:55 PM
Waning Gibbous, 53% visible
METAR KFWB 230655Z AUTO 23011G15KT 6SM -RA SCT019 BKN050 BKN070 22/22 A3003 RMK AO2 LTG DSNT NE AND S P0002
Pressure 30.03 in
Visibility 6.0 miles
Clouds Scattered Clouds 1900 ft
Mostly Cloudy 5000 ft
Mostly Cloudy 7000 ft
Heat Index 73 °F
Dew Point 62 °F
Humidity 73%
Rainfall 0.54 in
Snow Depth Not available.
6:38 AM 7:55 PM
Waning Gibbous, 53% visible
METAR KFWB 230655Z AUTO 23011G15KT 6SM -RA SCT019 BKN050 BKN070 22/22 A3003 RMK AO2 LTG DSNT NE AND S P0002

Get Severe Weather Alerts

Thanks for signing up!

Be on the lookout for a verification email in your inbox.

You'll start receiving the daily forecast at 6 AM.

×

10-Day Weather Forecast

Almanac

Astronomy

Aug. 23, 2019 Rise Set
Actual Time
Civil Twilight
Nautical Twilight
Astronomical Twilight
Moon
Length of Visible Light
Length of Day
Tomorrow will be .
, % of the Moon is Illuminated

Today's Extremes

State Highs State Lows

Community

WunderPhotos

Category 6

Welcome to Category 6. This is the collective home for Weather Underground's featured writeups by Dr. Jeff Masters (right), Bob Henson (left), Chris Burt, and other regular contributors.

Nearby

Air Quality

  Air Quality AQ Index Pollutant
Not available.

Snow Depth

Station Depth Elevation

Earthquake Activity

City Distance Mag. Time & Date
Minimum magnitude displayed is 2.5.

Coastal Water Temperatures

Place Temperature

Stations

Nearby Weather Stations

Station Location Temp. Windchill Dew Point Humidity Wind Precip. Elev Updated Type
                   

Watches & Warnings

There are currently no watches in effect.